Airfield :
LOGIN :

Register | Disclaimer

   EN    FR    IT 

 










Legend :    VFR   Marginal VFR   IFR   Intensive IFR   Very Intensive IFR
Visi :
Ceiling :
>= 8 km
>= 3000ft
5 to 8 km
1000 to 3000 ft
1500m to 5 km
500 to 1000 ft
800 to 1500m
200 to 500 ft
< 800m
< 200 ft
Symbols :   Thunderstorms  Fog  Heavy snow  Heavy precipitations  Wind > 20 kt
SIGMETs :     Misc.  Thunderstorms  Icing  Turbulence  Mountain Waves  Volcanic Ashes






- Airport Elevation : 137 ft


LIPS - Istrana AFB Treviso

CURRENT METAR :
  • 271855Z /////KT 9999 BKN090 08/03 Q1004 RMK BKN VIS MIN 9999 WIND THR26 10004KT WIND THR08 12003KT BLU

EXPIRED METARs :
  • 271755Z /////KT 9999 BKN080 08/M02 Q1005 RMK BKN VIS MIN 9999 WIND THR26 11003KT WIND THR08 17006KT BLU
  • 271655Z /////KT 9999 FEW080 09/M07 Q1005 RMK BKN BKN130 VIS MIN 9999 WIND THR26 12004KT WIND THR08 18004KT BLU

TAF TAF LIPS
Valid from the 27 at 18:00 until the 28 at 03:00 UTC


271700Z 2718/2803 18005KT 9999 SCT090



MET'MAP, your aeronautical weather chart ! - Copyright ORBIFLY December 2007 - Disclaimer

ORBIFLY MET'MAP TEAM :

Programming & Development : Alexandra Zaïnal
Concept & original design : Baudouin d'Aumeries
Assistance for programming : Marc-Olivier Méhu
Technical & hardware support : Manuel Goepfert

Contact : metmap@orbifly.com




SOURCES & CREDITS :

   NOAA